createdAt,value
2023-01-20T00:00:32.942Z,4.00
2023-01-20T00:03:00.489Z,3.45
2023-01-20T00:05:27.926Z,5.05
2023-01-20T00:07:55.400Z,3.63
2023-01-20T00:10:23.019Z,1.98
2023-01-20T00:12:50.491Z,2.35
2023-01-20T00:15:19.283Z,3.13
2023-01-20T00:17:46.717Z,3.08
2023-01-20T00:20:14.160Z,3.75
2023-01-20T00:22:42.261Z,3.40
2023-01-20T00:25:11.096Z,3.45
2023-01-20T00:27:38.586Z,4.45
2023-01-20T00:30:07.327Z,2.63
2023-01-20T00:32:39.400Z,4.32
2023-01-20T00:35:08.074Z,3.75
2023-01-20T00:37:35.505Z,3.20
2023-01-20T00:40:02.967Z,3.63
2023-01-20T00:42:30.407Z,2.70
2023-01-20T00:44:57.903Z,2.70
2023-01-20T00:47:25.480Z,3.70
2023-01-20T00:49:54.281Z,3.47
2023-01-20T00:52:22.409Z,1.95
2023-01-20T00:54:49.875Z,2.83
2023-01-20T00:57:17.341Z,3.83
2023-01-20T00:59:44.798Z,5.60
2023-01-20T01:02:12.308Z,3.63
2023-01-20T01:04:39.808Z,2.75
2023-01-20T01:07:08.598Z,3.47
2023-01-20T01:09:36.024Z,3.92
2023-01-20T01:12:03.474Z,2.75
2023-01-20T01:14:32.260Z,3.35
2023-01-20T01:16:59.788Z,3.65
2023-01-20T01:19:27.246Z,3.03
2023-01-20T01:21:54.697Z,2.83
2023-01-20T01:24:23.675Z,2.83
2023-01-20T01:26:51.161Z,2.85
2023-01-20T01:29:18.602Z,3.20
2023-01-20T01:31:46.112Z,3.15
2023-01-20T01:34:13.610Z,4.10
2023-01-20T01:36:41.061Z,3.70
2023-01-20T01:39:08.488Z,3.67
2023-01-20T01:41:37.292Z,3.33
2023-01-20T01:44:08.698Z,3.75
2023-01-20T01:46:36.617Z,3.55
2023-01-20T01:49:08.735Z,3.15
2023-01-20T01:51:40.052Z,4.78
2023-01-20T01:54:13.122Z,3.38
2023-01-20T01:56:44.414Z,4.43
2023-01-20T01:59:14.145Z,2.95
2023-01-20T02:01:45.898Z,3.92
2023-01-20T02:04:15.659Z,4.38
2023-01-20T02:06:46.559Z,4.53
2023-01-20T02:09:15.254Z,4.38
2023-01-20T02:11:48.549Z,3.67
2023-01-20T02:14:17.457Z,3.78
2023-01-20T02:16:54.114Z,3.35
2023-01-20T02:19:54.575Z,3.63
2023-01-20T02:22:30.990Z,3.55
2023-01-20T02:25:30.397Z,3.65
2023-01-20T02:28:38.051Z,3.42
2023-01-20T02:31:29.248Z,3.13
2023-01-20T02:34:01.999Z,4.28
2023-01-20T02:36:35.717Z,4.13
2023-01-20T02:39:12.127Z,3.28
2023-01-20T02:42:00.804Z,3.20
2023-01-20T02:44:36.509Z,3.17
2023-01-20T02:47:10.803Z,4.88
2023-01-20T02:49:43.272Z,4.75
2023-01-20T02:52:14.236Z,4.35
2023-01-20T02:54:45.689Z,3.05
2023-01-20T02:57:18.529Z,5.15
2023-01-20T02:59:53.833Z,3.45
2023-01-20T03:04:59.235Z,3.25
2023-01-20T03:07:30.639Z,4.50
2023-01-20T03:10:02.149Z,3.97
2023-01-20T03:12:35.725Z,4.00
2023-01-20T03:15:03.874Z,4.43
2023-01-20T03:17:33.131Z,4.53
2023-01-20T03:20:02.227Z,4.95
2023-01-20T03:22:31.628Z,5.72
2023-01-20T03:25:00.474Z,6.43
2023-01-20T03:27:27.969Z,4.35
2023-01-20T03:29:55.415Z,7.15
2023-01-20T03:32:26.710Z,4.93
2023-01-20T03:34:56.246Z,3.42
2023-01-20T03:37:25.272Z,4.65
2023-01-20T03:39:53.180Z,5.20
2023-01-20T03:42:29.075Z,6.07
2023-01-20T03:45:04.622Z,3.58
2023-01-20T03:47:49.302Z,7.00
2023-01-20T03:50:27.073Z,5.53
2023-01-20T03:53:01.551Z,4.35
2023-01-20T03:55:35.077Z,4.38
2023-01-20T03:58:07.311Z,4.40
2023-01-20T04:00:37.681Z,4.63
2023-01-20T04:03:09.559Z,5.65
2023-01-20T04:05:38.993Z,5.10
2023-01-20T04:08:10.858Z,4.78
2023-01-20T04:10:42.592Z,5.15
2023-01-20T04:13:10.447Z,4.38
2023-01-20T04:15:40.731Z,4.80
2023-01-20T04:18:13.074Z,3.75
2023-01-20T04:20:41.411Z,6.38
2023-01-20T04:23:18.668Z,4.32
2023-01-20T04:25:46.594Z,5.30
2023-01-20T04:28:14.055Z,5.10
2023-01-20T04:30:41.569Z,6.00
2023-01-20T04:33:09.106Z,5.35
2023-01-20T04:35:36.565Z,7.63
2023-01-20T04:38:04.254Z,5.78
2023-01-20T04:40:33.319Z,6.15
2023-01-20T04:43:00.805Z,5.07
2023-01-20T04:45:28.283Z,6.82
2023-01-20T04:47:55.766Z,7.45
2023-01-20T04:50:23.253Z,4.68
2023-01-20T04:52:50.726Z,5.20
2023-01-20T04:55:18.194Z,5.38
2023-01-20T04:57:48.307Z,5.60
2023-01-20T05:00:19.907Z,5.47
2023-01-20T05:02:48.166Z,7.03
2023-01-20T05:05:16.325Z,6.60
2023-01-20T05:07:44.064Z,6.28
2023-01-20T05:10:13.354Z,5.20
2023-01-20T05:12:41.123Z,7.47
2023-01-20T05:15:10.873Z,4.32
2023-01-20T05:17:38.330Z,8.98
2023-01-20T05:20:06.476Z,7.93
2023-01-20T05:22:34.034Z,6.22
2023-01-20T05:25:01.507Z,6.25
2023-01-20T05:27:29.007Z,6.25
2023-01-20T05:29:56.435Z,5.30
2023-01-20T05:32:25.189Z,7.70
2023-01-20T05:34:52.633Z,6.18
2023-01-20T05:37:20.071Z,5.78
2023-01-20T05:39:47.506Z,6.13
2023-01-20T05:42:15.519Z,5.20
2023-01-20T05:44:43.033Z,5.95
2023-01-20T05:47:10.876Z,6.00
2023-01-20T05:49:39.773Z,8.23
2023-01-20T05:52:07.296Z,8.02
2023-01-20T05:54:34.779Z,9.23
2023-01-20T05:57:04.077Z,8.18
2023-01-20T05:59:31.576Z,5.40
2023-01-20T06:01:59.025Z,5.40
2023-01-20T06:04:26.493Z,5.45
2023-01-20T06:06:55.301Z,7.00
2023-01-20T06:09:22.760Z,7.72
2023-01-20T06:11:51.734Z,7.13
2023-01-20T06:14:19.173Z,7.65
2023-01-20T06:16:46.658Z,8.43
2023-01-20T06:19:14.227Z,7.63
2023-01-20T06:21:41.698Z,6.05
2023-01-20T06:24:10.577Z,5.55
2023-01-20T06:26:38.022Z,5.75
2023-01-20T06:29:05.471Z,5.80
2023-01-20T06:31:33.072Z,7.05
2023-01-20T06:34:00.689Z,6.47
2023-01-20T06:36:28.151Z,6.65
2023-01-20T06:38:55.843Z,6.03
2023-01-20T06:41:24.928Z,8.55
2023-01-20T06:43:52.538Z,7.05
2023-01-20T06:46:20.191Z,6.30
2023-01-20T06:48:47.964Z,6.80
2023-01-20T06:51:17.419Z,5.50
2023-01-20T06:53:45.361Z,7.53
2023-01-20T06:56:14.458Z,6.30
2023-01-20T06:58:44.678Z,6.00
2023-01-20T07:01:14.354Z,6.07
2023-01-20T07:03:43.417Z,6.82
2023-01-20T07:06:17.158Z,6.88
2023-01-20T07:08:45.134Z,7.90
2023-01-20T07:11:12.943Z,7.90
2023-01-20T07:13:40.727Z,5.93
2023-01-20T07:16:11.567Z,8.00
2023-01-20T07:18:40.424Z,6.80
2023-01-20T07:21:08.321Z,7.20
2023-01-20T07:23:35.763Z,8.85
2023-01-20T07:26:05.405Z,4.35
2023-01-20T07:28:33.879Z,8.93
2023-01-20T07:31:04.317Z,6.43
2023-01-20T07:33:33.694Z,8.43
2023-01-20T07:36:01.838Z,8.30
2023-01-20T07:38:30.016Z,7.30
2023-01-20T07:40:58.482Z,8.25
2023-01-20T07:43:26.207Z,7.95
2023-01-20T07:45:56.036Z,8.18
2023-01-20T07:48:23.616Z,7.55
2023-01-20T07:51:01.731Z,8.30
2023-01-20T07:53:29.302Z,7.70
2023-01-20T07:55:56.890Z,7.82
2023-01-20T07:58:24.382Z,7.78
2023-01-20T08:00:51.851Z,8.05
2023-01-20T08:03:19.317Z,8.05
2023-01-20T08:05:46.761Z,6.75
2023-01-20T08:08:15.524Z,13.60
2023-01-20T08:10:43.050Z,14.05
2023-01-20T08:13:11.222Z,14.98
2023-01-20T08:15:38.659Z,15.85
2023-01-20T08:18:06.188Z,12.48
2023-01-20T08:20:33.621Z,8.55
2023-01-20T08:23:01.067Z,8.63
2023-01-20T08:25:29.857Z,8.48
2023-01-20T08:27:57.288Z,7.07
2023-01-20T08:30:24.889Z,7.82
2023-01-20T08:32:52.434Z,6.30
2023-01-20T08:35:20.101Z,6.97
2023-01-20T08:37:47.593Z,7.38
2023-01-20T08:40:15.435Z,10.57
2023-01-20T08:42:44.241Z,9.82
2023-01-20T08:45:12.757Z,8.75
2023-01-20T08:47:44.195Z,9.10
2023-01-20T08:50:13.942Z,7.13
2023-01-20T08:52:41.879Z,6.63
2023-01-20T08:55:09.593Z,7.30
2023-01-20T08:57:37.143Z,5.38
2023-01-20T09:00:10.920Z,9.38
2023-01-20T09:02:39.084Z,9.38
2023-01-20T09:05:08.578Z,8.98
2023-01-20T09:07:36.074Z,17.13
2023-01-20T09:10:04.308Z,16.27
2023-01-20T09:12:31.778Z,11.65
2023-01-20T09:14:59.229Z,9.07
2023-01-20T09:17:28.041Z,11.35
2023-01-20T09:19:55.653Z,11.00
2023-01-20T09:22:23.087Z,7.00
2023-01-20T09:24:50.529Z,9.13
2023-01-20T09:27:18.015Z,3.67
2023-01-20T09:29:45.464Z,8.45
2023-01-20T09:32:14.222Z,7.13
2023-01-20T09:34:43.005Z,8.02
2023-01-20T09:37:28.024Z,10.40
2023-01-20T09:40:09.596Z,8.10
2023-01-20T09:43:09.016Z,10.85
2023-01-20T09:45:42.628Z,6.22
2023-01-20T09:48:28.364Z,7.05
2023-01-20T09:51:21.053Z,7.22
2023-01-20T09:53:57.309Z,10.02
2023-01-20T09:56:28.362Z,9.10
2023-01-20T09:59:02.012Z,7.60
2023-01-20T10:01:37.425Z,10.15
2023-01-20T10:04:14.100Z,9.65
2023-01-20T10:06:46.973Z,9.70
2023-01-20T10:09:24.684Z,10.85
2023-01-20T10:12:00.576Z,8.13
2023-01-20T10:14:33.107Z,8.63
2023-01-20T10:17:08.870Z,11.23
2023-01-20T10:19:42.329Z,10.77
2023-01-20T10:22:17.284Z,6.03
2023-01-20T10:24:52.765Z,8.52
2023-01-20T10:27:20.212Z,7.30
2023-01-20T10:29:53.395Z,6.68
2023-01-20T10:32:29.461Z,9.80
2023-01-20T10:35:01.201Z,8.73
2023-01-20T10:37:31.936Z,11.32
2023-01-20T10:40:08.571Z,9.35
2023-01-20T10:42:36.038Z,6.53
2023-01-20T10:45:03.590Z,9.05
2023-01-20T10:47:43.466Z,10.85
2023-01-20T10:50:27.937Z,1.00
2023-01-20T10:53:13.837Z,7.32
2023-01-20T10:55:52.508Z,5.65
2023-01-20T10:58:25.208Z,8.85
2023-01-20T11:00:53.059Z,6.38
2023-01-20T11:03:22.434Z,6.70
2023-01-20T11:05:52.049Z,11.27
2023-01-20T11:08:23.537Z,10.68
2023-01-20T11:10:55.004Z,10.98
2023-01-20T11:13:22.480Z,7.57
2023-01-20T11:15:54.220Z,7.78
2023-01-20T11:18:26.398Z,7.65
2023-01-20T11:20:57.191Z,9.00
2023-01-20T11:23:36.032Z,9.75
2023-01-20T11:26:10.017Z,5.05
2023-01-20T11:28:51.454Z,3.97
2023-01-20T11:31:19.878Z,8.20
2023-01-20T11:33:59.597Z,6.07
2023-01-20T11:36:27.705Z,7.68
2023-01-20T11:38:57.993Z,6.10
2023-01-20T11:41:27.117Z,9.80
2023-01-20T11:43:56.520Z,6.38
2023-01-20T11:46:30.156Z,6.35
2023-01-20T11:49:14.840Z,7.55
2023-01-20T11:51:50.568Z,5.28
2023-01-20T11:54:21.864Z,7.82
2023-01-20T11:56:53.011Z,6.82
2023-01-20T11:59:25.246Z,5.28
2023-01-20T12:01:57.345Z,8.05
2023-01-20T12:04:52.659Z,6.13
2023-01-20T12:07:24.392Z,5.35
2023-01-20T12:09:56.977Z,5.25
2023-01-20T12:12:30.889Z,5.30
2023-01-20T12:15:05.814Z,5.05
2023-01-20T12:17:52.636Z,5.15
2023-01-20T12:20:27.480Z,5.00
2023-01-20T12:23:07.346Z,3.47
2023-01-20T12:25:43.172Z,8.13
2023-01-20T12:28:16.600Z,5.90
2023-01-20T12:30:52.320Z,4.07
2023-01-20T12:33:25.601Z,7.53
2023-01-20T12:36:41.119Z,3.90
2023-01-20T12:39:23.335Z,7.93
2023-01-20T12:42:13.885Z,6.15
2023-01-20T12:44:50.303Z,8.82
2023-01-20T12:47:32.362Z,6.28
2023-01-20T12:50:15.780Z,4.65
2023-01-20T12:53:02.455Z,5.38
2023-01-20T12:55:42.910Z,7.95
2023-01-20T12:58:22.063Z,6.60
2023-01-20T13:01:12.184Z,8.73
2023-01-20T13:04:03.433Z,5.93
2023-01-20T13:06:56.635Z,5.55
2023-01-20T13:09:39.987Z,5.43
2023-01-20T13:12:34.630Z,4.82
2023-01-20T13:15:17.921Z,6.80
2023-01-20T13:18:05.863Z,3.80
2023-01-20T13:20:35.025Z,6.38
2023-01-20T13:25:34.677Z,6.15
2023-01-20T13:28:03.100Z,4.95
2023-01-20T13:30:43.831Z,4.35
2023-01-20T13:33:17.977Z,4.22
2023-01-20T13:35:48.223Z,5.03
2023-01-20T13:38:21.890Z,6.85
2023-01-20T13:40:55.429Z,2.45
2023-01-20T13:43:37.742Z,4.88
2023-01-20T13:46:42.774Z,4.05
2023-01-20T13:49:22.857Z,7.70
2023-01-20T13:51:50.706Z,6.03
2023-01-20T13:54:51.638Z,3.40
2023-01-20T13:57:35.360Z,7.35
2023-01-20T14:00:12.049Z,5.75
2023-01-20T14:02:40.934Z,5.13
2023-01-20T14:05:31.507Z,3.72
2023-01-20T14:07:59.965Z,3.80
2023-01-20T14:10:28.303Z,3.42
2023-01-20T14:12:55.779Z,3.95
2023-01-20T14:15:29.291Z,5.30
2023-01-20T14:17:59.381Z,5.75
2023-01-20T14:20:29.833Z,7.03
2023-01-20T14:23:25.351Z,6.05
2023-01-20T14:26:08.752Z,3.92
2023-01-20T14:28:42.576Z,6.47
2023-01-20T14:31:18.195Z,5.65
2023-01-20T14:33:47.268Z,7.10
2023-01-20T14:36:21.495Z,6.28
2023-01-20T14:38:58.353Z,8.77
2023-01-20T14:41:32.682Z,5.95
2023-01-20T14:44:01.089Z,9.15
2023-01-20T14:46:29.817Z,6.72
2023-01-20T14:48:57.969Z,9.30
2023-01-20T14:51:27.039Z,7.78
2023-01-20T14:54:45.460Z,13.15
2023-01-20T15:00:20.697Z,9.45
2023-01-20T15:03:05.219Z,9.75
2023-01-20T15:05:38.409Z,4.63
2023-01-20T15:08:26.255Z,7.82
2023-01-20T15:11:20.502Z,6.05
2023-01-20T15:14:08.315Z,5.47
2023-01-20T15:16:44.655Z,4.38
2023-01-20T15:19:29.907Z,4.55
2023-01-20T15:22:17.170Z,5.15
2023-01-20T15:24:47.446Z,5.88
2023-01-20T15:27:27.461Z,5.45
2023-01-20T15:30:03.880Z,7.60
2023-01-20T15:32:31.586Z,5.18
2023-01-20T15:34:59.016Z,5.20
2023-01-20T15:37:26.476Z,7.32
2023-01-20T15:39:55.253Z,6.43
2023-01-20T15:42:24.205Z,6.85
2023-01-20T15:44:51.713Z,7.80
2023-01-20T15:47:21.815Z,5.32
2023-01-20T15:49:49.240Z,6.00
2023-01-20T15:52:19.820Z,5.80
2023-01-20T15:54:47.369Z,5.32
2023-01-20T15:57:17.782Z,5.53
2023-01-20T15:59:45.949Z,5.75
2023-01-20T16:02:18.766Z,4.47
2023-01-20T16:04:46.651Z,4.53
2023-01-20T16:07:16.126Z,7.60
2023-01-20T16:09:44.545Z,6.70
2023-01-20T16:12:13.612Z,4.95
2023-01-20T16:14:43.366Z,4.72
2023-01-20T16:17:15.912Z,7.13
2023-01-20T16:19:43.361Z,5.10
2023-01-20T16:22:11.582Z,5.63
2023-01-20T16:24:39.114Z,5.50
2023-01-20T16:27:17.289Z,6.80
2023-01-20T16:29:46.394Z,8.57
2023-01-20T16:34:45.673Z,9.55
2023-01-20T16:37:14.768Z,8.50
2023-01-20T16:42:11.414Z,6.65
2023-01-20T16:44:38.896Z,6.75
2023-01-20T16:47:08.244Z,8.25
2023-01-20T16:49:35.815Z,7.20
2023-01-20T16:52:03.246Z,7.28
2023-01-20T16:54:30.721Z,9.40
2023-01-20T16:56:58.156Z,7.78
2023-01-20T16:59:26.185Z,6.82
2023-01-20T17:01:53.761Z,7.55
2023-01-20T17:04:22.559Z,7.75
2023-01-20T17:06:52.868Z,8.65
2023-01-20T17:09:20.314Z,7.90
2023-01-20T17:11:47.808Z,9.00
2023-01-20T17:14:15.521Z,9.73
2023-01-20T17:16:43.085Z,8.45
2023-01-20T17:19:10.950Z,7.88
2023-01-20T17:21:40.039Z,9.57
2023-01-20T17:29:06.932Z,5.78
2023-01-20T17:31:36.611Z,7.53
2023-01-20T17:34:04.397Z,7.55
2023-01-20T17:36:34.227Z,7.68
2023-01-20T17:39:03.850Z,5.63
2023-01-20T17:41:31.363Z,6.88
2023-01-20T17:44:01.807Z,6.97
2023-01-20T17:46:31.302Z,6.60
2023-01-20T17:48:59.392Z,6.25
2023-01-20T17:51:28.597Z,6.20
2023-01-20T17:53:58.336Z,5.32
2023-01-20T17:56:27.725Z,6.32
2023-01-20T17:58:55.171Z,6.65
2023-01-20T18:01:25.512Z,6.78
2023-01-20T18:03:55.049Z,6.13
2023-01-20T18:06:24.098Z,5.40
2023-01-20T18:08:53.145Z,4.18
2023-01-20T18:11:22.750Z,5.47
2023-01-20T18:13:53.298Z,5.38
2023-01-20T18:16:22.518Z,5.95
2023-01-20T18:18:51.057Z,5.78
2023-01-20T18:21:19.867Z,4.07
2023-01-20T18:23:48.344Z,7.05
2023-01-20T18:26:16.908Z,5.40
2023-01-20T18:28:45.878Z,6.00
2023-01-20T18:31:17.175Z,5.28
2023-01-20T18:33:47.506Z,5.75
2023-01-20T18:36:17.625Z,5.00
2023-01-20T18:38:50.299Z,5.57
2023-01-20T18:41:18.225Z,5.63
2023-01-20T18:43:45.680Z,6.20
2023-01-20T18:46:14.963Z,4.43
2023-01-20T18:48:45.758Z,5.20
2023-01-20T18:51:15.079Z,7.65
2023-01-20T18:53:45.571Z,5.63
2023-01-20T18:56:15.234Z,6.18
2023-01-20T18:58:46.963Z,5.75
2023-01-20T19:01:17.512Z,7.45
2023-01-20T19:03:46.019Z,7.65
2023-01-20T19:06:15.256Z,8.27
2023-01-20T19:11:13.550Z,5.65
2023-01-20T19:13:41.515Z,5.80
2023-01-20T19:16:10.446Z,6.40
2023-01-20T19:18:39.992Z,6.82
2023-01-20T19:21:08.861Z,6.18
2023-01-20T19:23:36.869Z,6.30
2023-01-20T19:26:05.431Z,7.25
2023-01-20T19:28:33.267Z,6.65
2023-01-20T19:31:07.952Z,7.78
2023-01-20T19:33:36.141Z,6.63
2023-01-20T19:36:07.345Z,7.20
2023-01-20T19:38:36.126Z,7.05
2023-01-20T19:41:07.555Z,7.88
2023-01-20T19:43:36.065Z,9.60
2023-01-20T19:46:04.408Z,9.05
2023-01-20T19:48:32.721Z,9.50
2023-01-20T19:51:04.211Z,9.30
2023-01-20T19:53:33.861Z,8.00
2023-01-20T19:56:02.335Z,6.50
2023-01-20T19:58:29.809Z,7.55
2023-01-20T20:01:06.146Z,7.22
2023-01-20T20:03:33.836Z,7.20
2023-01-20T20:06:01.469Z,9.48
2023-01-20T20:08:28.932Z,7.82
2023-01-20T20:10:57.771Z,7.50
2023-01-20T20:13:25.664Z,7.82
2023-01-20T20:16:00.958Z,7.15
2023-01-20T20:18:28.550Z,7.53
2023-01-20T20:20:56.122Z,6.82
2023-01-20T20:23:23.605Z,8.65
2023-01-20T20:25:53.877Z,7.03
2023-01-20T20:28:23.462Z,7.53
2023-01-20T20:30:51.098Z,10.05
2023-01-20T20:33:19.061Z,8.45
2023-01-20T20:35:46.536Z,8.45
2023-01-20T20:38:13.981Z,10.10
2023-01-20T20:40:41.440Z,9.10
2023-01-20T20:43:08.922Z,9.30
2023-01-20T20:45:37.725Z,9.57
2023-01-20T20:48:05.628Z,6.88
2023-01-20T20:50:33.404Z,5.88
2023-01-20T20:53:00.994Z,7.13
2023-01-20T20:55:29.215Z,6.72
2023-01-20T20:57:57.148Z,7.35
2023-01-20T21:00:28.049Z,7.97
2023-01-20T21:02:57.266Z,6.57
2023-01-20T21:05:24.904Z,7.20
2023-01-20T21:07:52.386Z,8.50
2023-01-20T21:10:21.101Z,9.57
2023-01-20T21:12:48.596Z,7.68
2023-01-20T21:15:17.810Z,6.85
2023-01-20T21:20:14.347Z,5.35
2023-01-20T21:22:41.970Z,6.65
2023-01-20T21:25:09.997Z,5.65
2023-01-20T21:27:38.013Z,7.53
2023-01-20T21:30:06.430Z,5.32
2023-01-20T21:32:33.903Z,7.80
2023-01-20T21:35:02.503Z,4.93
2023-01-20T21:37:31.279Z,6.63
2023-01-20T21:39:58.714Z,8.68
2023-01-20T21:42:26.432Z,8.02
2023-01-20T21:44:53.895Z,6.28
2023-01-20T21:47:21.343Z,6.50
2023-01-20T21:50:06.669Z,4.57
2023-01-20T21:52:42.042Z,5.85
2023-01-20T21:57:38.594Z,4.82
2023-01-20T22:00:08.457Z,4.43
2023-01-20T22:02:38.319Z,6.22
2023-01-20T22:05:06.648Z,5.00
2023-01-20T22:07:35.553Z,4.88
2023-01-20T22:10:03.091Z,4.05
2023-01-20T22:12:34.402Z,8.25
2023-01-20T22:15:02.273Z,5.95
2023-01-20T22:17:29.967Z,7.97
2023-01-20T22:19:57.495Z,5.93
2023-01-20T22:22:24.995Z,8.52
2023-01-20T22:24:53.829Z,6.28
2023-01-20T22:27:21.333Z,7.85
2023-01-20T22:29:48.973Z,6.50
2023-01-20T22:32:16.435Z,8.85
2023-01-20T22:34:43.879Z,7.05
2023-01-20T22:37:11.344Z,5.53
2023-01-20T22:39:38.817Z,6.35
2023-01-20T22:42:08.046Z,5.53
2023-01-20T22:47:09.608Z,3.60
2023-01-20T22:49:37.333Z,5.95
2023-01-20T22:52:04.961Z,8.15
2023-01-20T22:54:32.421Z,8.15
2023-01-20T22:57:02.802Z,6.13
2023-01-20T22:59:31.693Z,5.97
2023-01-20T23:01:59.151Z,6.13
2023-01-20T23:04:27.426Z,8.25
2023-01-20T23:06:55.310Z,4.85
2023-01-20T23:09:22.986Z,7.65
2023-01-20T23:11:50.782Z,7.75
2023-01-20T23:14:38.560Z,7.82
2023-01-20T23:19:34.639Z,4.88
2023-01-20T23:22:02.245Z,5.63
2023-01-20T23:24:29.684Z,5.43
2023-01-20T23:26:57.180Z,5.07
2023-01-20T23:29:24.617Z,3.08
2023-01-20T23:31:52.380Z,7.65
2023-01-20T23:34:21.200Z,8.38
2023-01-20T23:36:48.612Z,4.15
2023-01-20T23:39:16.045Z,5.18
2023-01-20T23:41:43.528Z,8.77
2023-01-20T23:44:11.442Z,8.27
2023-01-20T23:46:39.054Z,8.00
2023-01-20T23:49:06.666Z,5.25
2023-01-20T23:51:35.460Z,8.35
2023-01-20T23:54:04.659Z,6.68
2023-01-20T23:56:32.093Z,8.32
2023-01-20T23:58:59.504Z,6.78
